VTPH/HHQ METAR and TAF weather

Enter ICAO airport designator
Station Type Date Time Source
VTPH METAR 2023/02/04 03:00 UTC NOAA

VTPH 040300Z 10005KT 9999 FEW030 30/24 Q1011 NOSIG


Station Type Date Time Source
VTPH Decoded METAR 2023/02/04 03:00 UTC NOAA

Hua Hin, Thailand (VTPH) 12-35N 099-57E 6M
Feb 03, 2023 - 10:00 PM EST / 2023.02.04 0300 UTC
Wind: from the E (100 degrees) at 6 MPH (5 KT):0
Visibility: greater than 7 mile(s):0
Sky conditions: mostly clear
Temperature: 86 F (30 C)
Heat index: 95.0 F (35.0 C):1
Dew Point: 75 F (24 C)
Relative Humidity: 70%
Pressure (altimeter): 29.85 in. Hg (1011 hPa)
ob: VTPH 040300Z 10005KT 9999 FEW030 30/24 Q1011 NOSIG
cycle: 3

Station Type Date Time Source
VTPH TAF 2023/02/03 18:00 UTC NOAA

TAF VTPH 031700Z 0318/0418 23003KT 6000 FEW020
BECMG 0403/0405 14006KT
BECMG 0416/0418 23003KT

Example: see airport list